Time;durP1;ratioP1;P1;durP2;ratioP2;P2;SDS_P1;SDS_P2;PMS_P1;PMS_P2;Temp;Humidity;BMP_temperature;BMP_pressure;BME280_temperature;BME280_humidity;BME280_pressure;Samples;Min_cycle;Max_cycle;Signal;HPM_P1;HPM_P2
2021/08/03 00:00:56;;;;;;;8.00;7.18;;;;;;;13.72;77.45;99444.97;5007315;28;20696;-71
2021/08/03 00:03:29;;;;;;;7.90;6.32;;;;;;;13.67;77.79;99447.06;5007164;28;20127;-70
2021/08/03 00:05:58;;;;;;;10.75;7.78;;;;;;;13.65;77.65;99438.38;5007469;28;20114;-67
2021/08/03 00:08:32;;;;;;;6.95;6.25;;;;;;;13.63;78.11;99433.16;4996687;28;20037;-69
2021/08/03 00:11:01;;;;;;;10.60;6.53;;;;;;;13.62;77.86;99439.44;5011107;28;20040;-70
2021/08/03 00:13:28;;;;;;;7.25;5.68;;;;;;;13.65;78.46;99438.38;5011390;28;20125;-68
2021/08/03 00:16:01;;;;;;;5.32;4.80;;;;;;;13.69;78.17;99437.22;5028370;28;20374;-69
2021/08/03 00:18:28;;;;;;;7.25;6.47;;;;;;;13.72;78.03;99431.72;5006877;28;20042;-68
2021/08/03 00:20:53;;;;;;;7.53;5.88;;;;;;;13.75;77.01;99429.69;5031042;28;20052;-68
2021/08/03 00:23:31;;;;;;;8.48;6.80;;;;;;;13.77;76.61;99428.75;4999053;28;20038;-69
2021/08/03 00:25:57;;;;;;;7.88;5.28;;;;;;;13.80;77.02;99429.38;5037573;28;20038;-70
2021/08/03 00:28:23;;;;;;;4.68;3.75;;;;;;;13.87;76.85;99432.47;5010450;28;20037;-69
2021/08/03 00:30:49;;;;;;;6.75;5.75;;;;;;;13.91;76.71;99433.97;5003792;28;20563;-69
2021/08/03 00:33:15;;;;;;;8.65;6.15;;;;;;;13.88;76.41;99427.06;5009740;28;20033;-68
2021/08/03 00:35:41;;;;;;;8.15;5.72;;;;;;;13.86;76.83;99426.31;5009091;28;20517;-68
2021/08/03 00:38:07;;;;;;;7.68;6.57;;;;;;;13.87;77.18;99420.06;5011982;28;20037;-68
2021/08/03 00:40:36;;;;;;;8.30;5.53;;;;;;;13.89;77.12;99420.81;5011947;28;20706;-68
2021/08/03 00:43:02;;;;;;;5.03;4.47;;;;;;;13.92;76.52;99420.59;5020513;28;20126;-69
2021/08/03 00:45:40;;;;;;;9.82;4.85;;;;;;;13.96;76.33;99416.78;5023516;28;20514;-69
2021/08/03 00:48:05;;;;;;;5.55;4.82;;;;;;;14.01;76.23;99418.28;5016834;28;20033;-68
2021/08/03 00:50:30;;;;;;;8.25;6.07;;;;;;;14.01;76.58;99416.47;5010147;28;20080;-69
2021/08/03 00:52:56;;;;;;;5.15;4.32;;;;;;;14.04;76.25;99423.34;5010807;28;20118;-69
2021/08/03 00:55:24;;;;;;;5.63;4.57;;;;;;;14.06;75.73;99417.00;5002808;28;20041;-68
2021/08/03 00:57:50;;;;;;;7.28;5.65;;;;;;;14.06;75.84;99414.34;5001969;28;20050;-70
2021/08/03 01:00:15;;;;;;;13.43;4.85;;;;;;;13.98;76.21;99415.81;4993332;28;20030;-71
2021/08/03 01:02:42;;;;;;;8.75;6.22;;;;;;;13.94;76.24;99408.09;4949945;28;20097;-69
2021/08/03 01:05:08;;;;;;;10.27;7.13;;;;;;;13.88;76.55;99405.00;4992706;28;20046;-69
2021/08/03 01:08:19;;;;;;;10.32;6.90;;;;;;;13.85;77.28;99406.06;4989738;28;20046;-69
2021/08/03 01:11:02;;;;;;;10.73;6.03;;;;;;;13.83;77.35;99407.13;4988437;28;20034;-70
2021/08/03 01:13:46;;;;;;;8.07;6.82;;;;;;;13.80;76.86;99402.88;4996111;28;20150;-69
2021/08/03 01:16:33;;;;;;;7.45;6.15;;;;;;;13.85;77.36;99403.41;4991014;28;20034;-70
2021/08/03 01:19:25;;;;;;;6.05;4.68;;;;;;;13.89;76.96;99402.25;4995752;28;20030;-69
2021/08/03 01:21:56;;;;;;;5.88;4.28;;;;;;;13.93;77.34;99403.75;4979356;28;20101;-69
2021/08/03 01:24:54;;;;;;;10.32;5.25;;;;;;;14.01;76.43;99400.56;4983642;28;20072;-67
2021/08/03 01:27:46;;;;;;;10.80;5.10;;;;;;;14.08;76.45;99407.13;4981133;28;20038;-68
2021/08/03 01:30:20;;;;;;;7.60;6.10;;;;;;;14.06;76.18;99400.25;4981962;28;20042;-69
2021/08/03 01:32:46;;;;;;;6.05;5.03;;;;;;;14.02;76.38;99393.44;4996336;28;20174;-68
2021/08/03 01:35:13;;;;;;;8.70;6.55;;;;;;;14.02;76.10;99406.72;4991470;28;20500;-68
2021/08/03 01:37:39;;;;;;;7.00;5.63;;;;;;;13.98;76.10;99399.91;4988233;28;20042;-69
2021/08/03 01:40:14;;;;;;;8.18;6.22;;;;;;;13.98;77.18;99394.63;4991587;28;20402;-68
2021/08/03 01:42:47;;;;;;;5.57;4.00;;;;;;;13.99;77.00;99401.63;4991474;28;20502;-69
2021/08/03 01:45:13;;;;;;;9.13;6.00;;;;;;;13.99;77.05;99406.94;4989027;28;20046;-71
2021/08/03 01:47:39;;;;;;;9.68;5.63;;;;;;;13.97;78.07;99396.41;4993480;28;20127;-68
2021/08/03 01:50:12;;;;;;;8.50;6.60;;;;;;;14.00;77.25;99396.19;4991623;28;20058;-71
2021/08/03 01:52:47;;;;;;;8.10;6.03;;;;;;;14.00;77.94;99392.72;4990735;28;20034;-69
2021/08/03 01:55:13;;;;;;;11.55;6.72;;;;;;;13.97;78.48;99396.41;4989021;28;20035;-69
2021/08/03 01:57:43;;;;;;;9.48;6.93;;;;;;;13.93;78.25;99390.50;4990657;28;20034;-69
2021/08/03 02:00:09;;;;;;;7.13;6.03;;;;;;;13.92;78.61;99386.13;4990978;28;20034;-67
2021/08/03 02:02:35;;;;;;;8.63;5.63;;;;;;;14.00;77.90;99390.06;4985986;28;20494;-69
2021/08/03 02:05:01;;;;;;;7.03;6.32;;;;;;;14.03;77.14;99382.75;4990204;28;20041;-69
2021/08/03 02:07:27;;;;;;;6.75;6.05;;;;;;;14.05;77.61;99383.47;4993949;28;20023;-68
2021/08/03 02:09:55;;;;;;;12.10;7.10;;;;;;;14.03;78.06;99384.53;4998698;28;20038;-72
2021/08/03 02:12:33;;;;;;;9.65;6.03;;;;;;;13.99;78.28;99381.25;4992296;28;20518;-69
2021/08/03 02:15:06;;;;;;;7.50;5.95;;;;;;;13.98;78.69;99379.59;4988804;28;20109;-68
2021/08/03 02:17:32;;;;;;;6.30;5.70;;;;;;;13.99;79.01;99378.63;4995738;28;20100;-71
2021/08/03 02:19:57;;;;;;;9.38;7.18;;;;;;;14.01;79.14;99384.66;4987346;28;20029;-68
2021/08/03 02:22:22;;;;;;;8.48;6.97;;;;;;;14.01;79.23;99378.53;4988915;28;20703;-69
2021/08/03 02:25:18;;;;;;;12.60;7.13;;;;;;;14.02;79.52;99383.69;4989872;28;20125;-70
2021/08/03 02:27:44;;;;;;;7.63;5.03;;;;;;;14.00;78.81;99382.94;4991344;28;20445;-71
2021/08/03 02:30:10;;;;;;;6.28;5.63;;;;;;;13.98;78.63;99378.72;4991327;28;20069;-68
2021/08/03 02:32:49;;;;;;;8.07;5.68;;;;;;;13.93;78.52;99374.59;4997976;28;20034;-69
2021/08/03 02:35:22;;;;;;;5.88;4.88;;;;;;;13.91;78.65;99376.50;4979879;28;20104;-68
2021/08/03 02:37:52;;;;;;;7.65;5.43;;;;;;;13.91;78.52;99376.50;4988661;28;20046;-68
2021/08/03 02:40:18;;;;;;;6.00;5.07;;;;;;;13.93;78.23;99374.59;4990085;28;20077;-68
2021/08/03 02:42:44;;;;;;;6.50;5.05;;;;;;;13.93;78.13;99365.78;4985195;28;20038;-70
2021/08/03 02:45:12;;;;;;;6.10;4.35;;;;;;;13.88;77.97;99371.44;4990852;28;20399;-67
2021/08/03 02:47:46;;;;;;;8.15;5.15;;;;;;;13.86;78.06;99375.13;4981714;28;20421;-67
2021/08/03 02:50:15;;;;;;;9.13;5.90;;;;;;;13.83;78.28;99365.59;5004676;28;20034;-70
2021/08/03 02:52:54;;;;;;;5.50;5.00;;;;;;;13.87;78.38;99375.00;4991639;28;20038;-69
2021/08/03 02:55:31;;;;;;;6.75;5.38;;;;;;;13.86;78.71;99370.69;4965747;28;20050;-68
2021/08/03 02:58:03;;;;;;;9.68;5.82;;;;;;;13.84;78.22;99358.50;4995111;28;20047;-68
2021/08/03 03:00:33;;;;;;;9.07;5.80;;;;;;;13.87;78.04;99358.28;5013735;28;21452;-69
2021/08/03 03:03:07;;;;;;;6.53;5.05;;;;;;;13.89;78.16;99356.38;5021386;28;20105;-69
2021/08/03 03:05:43;;;;;;;7.13;6.43;;;;;;;13.94;77.85;99348.94;5019514;28;20025;-69
2021/08/03 03:08:15;;;;;;;8.65;5.15;;;;;;;13.98;77.41;99363.69;5028152;28;20030;-68
2021/08/03 03:10:47;;;;;;;7.55;6.13;;;;;;;14.02;77.97;99359.00;5028285;28;20038;-68
2021/08/03 03:13:44;;;;;;;11.80;6.55;;;;;;;14.01;78.67;99354.66;5029489;28;20029;-68
2021/08/03 03:16:14;;;;;;;7.72;5.68;;;;;;;13.98;79.21;99354.84;5023122;28;20034;-69
2021/08/03 03:18:40;;;;;;;8.48;5.38;;;;;;;14.01;78.62;99352.00;5027275;28;20038;-70
2021/08/03 03:21:27;;;;;;;5.93;4.25;;;;;;;14.03;77.89;99355.38;5029103;28;20033;-70
2021/08/03 03:23:54;;;;;;;5.88;4.57;;;;;;;14.00;78.15;99343.19;5028569;28;20048;-69
2021/08/03 03:26:43;;;;;;;5.47;4.97;;;;;;;14.01;78.32;99341.41;5027589;28;20562;-69
2021/08/03 03:29:55;;;;;;;7.65;5.32;;;;;;;13.99;79.19;99346.81;5028700;28;20037;-69
2021/08/03 03:32:21;;;;;;;6.20;4.93;;;;;;;13.92;79.27;99338.44;5020215;28;20087;-68
2021/08/03 03:35:01;;;;;;;5.93;4.28;;;;;;;13.96;79.06;99341.72;5022350;28;20437;-70
2021/08/03 03:37:28;;;;;;;7.10;5.88;;;;;;;13.98;79.00;99345.13;5027634;28;20087;-68
2021/08/03 03:39:56;;;;;;;6.85;4.72;;;;;;;14.02;79.29;99337.78;5010129;28;20571;-69
2021/08/03 03:42:25;;;;;;;10.27;6.53;;;;;;;14.06;79.63;99339.28;5046639;28;20073;-68
2021/08/03 03:44:51;;;;;;;7.60;6.57;;;;;;;14.05;79.11;99335.75;5038789;28;20104;-68
2021/08/03 03:47:35;;;;;;;9.27;5.38;;;;;;;14.02;79.94;99330.69;5047751;28;20032;-69
2021/08/03 03:50:59;;;;;;;6.00;4.57;;;;;;;13.98;80.00;99326.56;5027275;28;20038;-68
2021/08/03 03:53:31;;;;;;;10.50;5.68;;;;;;;14.02;79.89;99325.38;4963038;28;20157;-68
2021/08/03 03:56:09;;;;;;;6.13;4.85;;;;;;;13.98;80.20;99326.56;5030171;28;20448;-68
2021/08/03 03:58:57;;;;;;;6.15;5.13;;;;;;;13.96;79.97;99328.47;5036621;28;20037;-69
2021/08/03 04:01:37;;;;;;;6.93;5.00;;;;;;;13.93;80.29;99331.31;5010585;28;20502;-68
2021/08/03 04:04:07;;;;;;;6.28;5.10;;;;;;;13.89;80.30;99328.06;5014978;28;20049;-70
2021/08/03 04:06:33;;;;;;;8.68;4.55;;;;;;;13.87;80.43;99329.13;4983948;28;20038;-68
2021/08/03 04:08:58;;;;;;;6.68;4.72;;;;;;;13.85;80.22;99328.38;4991724;28;20042;-70
2021/08/03 04:11:24;;;;;;;12.40;5.78;;;;;;;13.84;80.18;99324.88;4949133;28;20633;-68
2021/08/03 04:13:51;;;;;;;7.72;5.25;;;;;;;13.85;80.50;99329.22;5002412;28;20042;-69
2021/08/03 04:16:16;;;;;;;5.25;4.30;;;;;;;13.84;80.44;99324.03;5012327;28;20037;-69
2021/08/03 04:18:51;;;;;;;5.80;5.00;;;;;;;13.80;80.06;99323.41;5010598;28;20060;-69
2021/08/03 04:21:28;;;;;;;6.17;5.20;;;;;;;13.77;79.92;99328.91;5005314;28;20379;-70
2021/08/03 04:24:03;;;;;;;9.15;6.30;;;;;;;13.76;80.37;99335.19;5019024;28;20265;-68
2021/08/03 04:26:28;;;;;;;8.02;6.57;;;;;;;13.79;81.10;99334.13;5011034;28;20497;-68
2021/08/03 04:28:53;;;;;;;7.15;6.45;;;;;;;13.78;80.65;99335.06;5022226;28;20044;-68
2021/08/03 04:31:19;;;;;;;9.60;6.50;;;;;;;13.80;81.31;99338.44;5004959;28;20501;-72
2021/08/03 04:33:53;;;;;;;7.13;5.22;;;;;;;13.83;81.00;99343.53;4995188;28;20030;-68
2021/08/03 04:36:35;;;;;;;10.98;5.72;;;;;;;13.83;81.55;99335.59;5011598;28;20165;-71
2021/08/03 04:39:00;;;;;;;7.78;6.50;;;;;;;13.86;81.62;99335.38;5011476;28;20525;-68
2021/08/03 04:41:26;;;;;;;6.78;6.05;;;;;;;13.86;81.88;99338.88;5004335;28;20100;-68
2021/08/03 04:43:51;;;;;;;10.02;6.43;;;;;;;13.88;80.88;99333.44;5001827;28;20069;-69
2021/08/03 04:46:45;;;;;;;8.65;6.28;;;;;;;13.88;81.42;99328.16;5018940;28;20044;-67
2021/08/03 04:49:31;;;;;;;10.00;7.80;;;;;;;13.86;81.50;99330.94;5011862;28;20026;-68
2021/08/03 04:51:59;;;;;;;8.35;5.07;;;;;;;13.89;80.42;99338.66;5011425;28;20045;-68
2021/08/03 04:54:25;;;;;;;6.13;5.35;;;;;;;13.92;79.68;99337.59;5010948;28;20034;-68
2021/08/03 04:56:51;;;;;;;6.75;5.43;;;;;;;13.95;79.78;99332.06;5000522;28;20030;-68
2021/08/03 04:59:16;;;;;;;9.65;6.15;;;;;;;13.94;79.57;99341.84;5014785;28;20038;-68
2021/08/03 05:02:07;;;;;;;7.97;6.57;;;;;;;13.94;80.93;99341.84;5014263;28;20034;-70
2021/08/03 05:04:56;;;;;;;6.07;5.05;;;;;;;13.94;79.43;99344.47;5017244;28;20037;-68
2021/08/03 05:07:25;;;;;;;6.20;4.65;;;;;;;13.91;79.93;99339.41;4990329;28;20034;-71
2021/08/03 05:09:50;;;;;;;9.70;7.22;;;;;;;13.88;79.79;99331.69;4989552;28;20429;-69
2021/08/03 05:12:15;;;;;;;7.68;5.82;;;;;;;13.88;80.68;99328.16;4982157;28;20076;-68
2021/08/03 05:14:41;;;;;;;7.75;4.93;;;;;;;13.88;79.60;99336.09;4971928;28;20038;-69
2021/08/03 05:17:15;;;;;;;8.43;4.93;;;;;;;13.87;79.95;99340.56;4980132;28;20030;-70
2021/08/03 05:19:44;;;;;;;7.60;5.50;;;;;;;13.82;80.89;99342.69;4990743;28;20394;-70
2021/08/03 05:22:09;;;;;;;5.82;4.80;;;;;;;13.80;81.39;99338.44;4992062;28;20027;-68
2021/08/03 05:24:34;;;;;;;8.63;6.35;;;;;;;13.79;81.97;99334.97;5000511;28;20138;-69
2021/08/03 05:27:05;;;;;;;7.30;5.43;;;;;;;13.79;82.61;99329.66;4991032;28;20026;-69
2021/08/03 05:29:34;;;;;;;11.90;6.88;;;;;;;13.82;82.44;99324.13;4992246;28;20493;-68
2021/08/03 05:31:59;;;;;;;8.63;6.88;;;;;;;13.79;83.21;99318.22;4991580;28;20030;-69
2021/08/03 05:34:24;;;;;;;7.30;6.40;;;;;;;13.79;82.65;99319.06;4991943;28;20371;-69
2021/08/03 05:37:01;;;;;;;10.40;6.60;;;;;;;13.85;82.63;99323.06;4989452;28;20117;-69
2021/08/03 05:39:26;;;;;;;7.60;6.22;;;;;;;13.88;82.92;99317.56;4991376;28;20061;-68
2021/08/03 05:41:51;;;;;;;10.15;5.07;;;;;;;13.96;83.10;99316.06;4997506;28;20514;-68
2021/08/03 05:44:17;;;;;;;8.32;7.05;;;;;;;14.04;82.71;99320.81;4990703;28;20161;-69
2021/08/03 05:46:42;;;;;;;9.00;7.05;;;;;;;14.08;82.88;99309.06;4957853;28;20100;-68
2021/08/03 05:49:07;;;;;;;10.45;8.32;;;;;;;14.11;83.14;99308.84;4996953;28;20066;-68
2021/08/03 05:51:33;;;;;;;9.70;6.57;;;;;;;14.15;82.74;99312.97;4997651;28;20034;-70
2021/08/03 05:53:58;;;;;;;10.98;7.53;;;;;;;14.14;81.73;99308.59;4975349;28;20042;-68
2021/08/03 05:56:29;;;;;;;7.47;5.60;;;;;;;14.13;81.48;99306.94;5003958;28;20502;-68
2021/08/03 05:58:55;;;;;;;7.85;5.47;;;;;;;14.17;81.29;99305.72;5035263;28;20042;-72
2021/08/03 06:01:20;;;;;;;6.15;4.80;;;;;;;14.24;81.11;99300.00;5010608;28;20034;-66
2021/08/03 06:03:46;;;;;;;8.48;4.35;;;;;;;14.30;80.15;99300.41;5010913;28;20046;-68
2021/08/03 06:06:14;;;;;;;8.45;6.57;;;;;;;14.33;80.29;99310.78;5009086;28;20112;-67
2021/08/03 06:08:42;;;;;;;8.45;5.22;;;;;;;14.33;81.09;99307.28;5008900;28;20048;-67
2021/08/03 06:11:08;;;;;;;8.35;5.80;;;;;;;14.38;81.19;99308.66;5001860;28;20050;-66
2021/08/03 06:13:35;;;;;;;12.07;6.07;;;;;;;14.44;81.14;99304.69;5001927;28;20394;-66
2021/08/03 06:16:09;;;;;;;13.82;7.05;;;;;;;14.49;80.93;99320.28;5010380;28;20034;-66
2021/08/03 06:18:43;;;;;;;15.68;5.22;;;;;;;14.45;80.65;99321.44;4989749;28;20091;-66
2021/08/03 06:21:09;;;;;;;6.20;4.95;;;;;;;14.42;80.97;99319.03;5009637;28;20521;-67
2021/08/03 06:23:36;;;;;;;11.00;6.85;;;;;;;14.39;81.77;99323.59;5009994;28;20062;-66
2021/08/03 06:26:12;;;;;;;12.82;5.63;;;;;;;14.34;81.64;99315.13;5003300;28;20083;-67
2021/08/03 06:28:38;;;;;;;7.90;6.53;;;;;;;14.30;82.26;99318.97;5009645;28;20083;-67
2021/08/03 06:31:04;;;;;;;6.40;5.28;;;;;;;14.24;82.73;99300.00;5013212;28;20417;-66
2021/08/03 06:33:30;;;;;;;6.75;5.28;;;;;;;14.26;82.65;99298.94;5008063;28;20030;-66
2021/08/03 06:35:55;;;;;;;10.55;6.32;;;;;;;14.30;82.58;99296.88;5017652;28;20042;-66
2021/08/03 06:38:34;;;;;;;11.13;6.75;;;;;;;14.35;82.93;99292.97;4992798;28;20052;-67
2021/08/03 06:41:34;;;;;;;6.82;5.53;;;;;;;14.40;81.33;99289.97;4982801;28;20081;-67
2021/08/03 06:44:19;;;;;;;6.20;5.32;;;;;;;14.44;81.75;99298.53;4990555;28;20030;-67
2021/08/03 06:46:49;;;;;;;9.20;6.45;;;;;;;14.49;81.82;99293.75;4994057;28;20034;-67
2021/08/03 06:49:15;;;;;;;8.20;6.90;;;;;;;14.56;82.62;99297.69;5003584;28;20775;-67
2021/08/03 06:51:42;;;;;;;8.25;7.45;;;;;;;14.57;82.38;99302.00;5002652;28;20033;-67
2021/08/03 06:54:11;;;;;;;8.75;5.43;;;;;;;14.66;81.77;99303.16;5024008;28;20041;-72
2021/08/03 06:56:46;;;;;;;6.32;5.15;;;;;;;14.71;80.90;99296.53;4999905;28;20124;-74
2021/08/03 06:59:19;;;;;;;7.18;6.05;;;;;;;14.72;80.39;99298.25;4992467;28;20038;-71
2021/08/03 07:01:54;;;;;;;8.75;6.65;;;;;;;14.82;80.86;99287.81;4997093;28;20449;-71
2021/08/03 07:04:28;;;;;;;5.95;4.30;;;;;;;14.89;80.50;99297.00;5002484;28;20045;-70
2021/08/03 07:06:56;;;;;;;8.45;5.97;;;;;;;14.96;80.11;99297.38;5002740;28;20038;-69
2021/08/03 07:09:24;;;;;;;8.10;4.60;;;;;;;15.07;79.35;99292.09;4995298;28;20069;-71
2021/08/03 07:11:53;;;;;;;7.65;5.90;;;;;;;15.09;78.09;99300.81;4984068;28;20514;-74
2021/08/03 07:14:19;;;;;;;8.23;6.30;;;;;;;15.05;78.32;99299.34;4980537;28;20123;-71
2021/08/03 07:16:47;;;;;;;6.70;5.90;;;;;;;15.11;78.85;99303.31;4982847;28;20049;-69
2021/08/03 07:19:13;;;;;;;5.70;4.35;;;;;;;15.19;78.66;99296.47;4983725;28;20038;-70
2021/08/03 07:21:39;;;;;;;5.82;4.82;;;;;;;15.27;77.68;99290.59;4983936;28;20113;-70
2021/08/03 07:24:11;;;;;;;6.95;4.82;;;;;;;15.35;77.79;99290.81;4979799;28;20438;-70
2021/08/03 07:26:36;;;;;;;11.85;5.93;;;;;;;15.38;77.57;99285.31;4984466;28;20092;-70
2021/08/03 07:29:01;;;;;;;9.85;6.93;;;;;;;15.40;78.18;99280.69;4973842;28;20463;-71
2021/08/03 07:31:36;;;;;;;11.00;6.85;;;;;;;15.44;79.27;99282.16;4983879;28;20128;-69
2021/08/03 07:34:04;;;;;;;11.20;7.22;;;;;;;15.50;79.50;99287.97;4984826;28;20089;-71
2021/08/03 07:36:30;;;;;;;8.48;6.97;;;;;;;15.51;78.19;99276.38;4987072;28;20561;-73
2021/08/03 07:38:58;;;;;;;8.77;7.15;;;;;;;15.58;76.18;99280.22;4994721;28;20056;-75
2021/08/03 07:41:25;;;;;;;7.38;5.97;;;;;;;15.67;77.28;99282.16;5005626;28;20045;-68
2021/08/03 07:43:54;;;;;;;9.93;5.78;;;;;;;15.64;77.13;99280.59;5006627;28;20034;-71
2021/08/03 07:46:20;;;;;;;10.82;5.13;;;;;;;15.60;74.83;99279.16;5013608;28;20042;-71
2021/08/03 07:48:51;;;;;;;8.88;5.30;;;;;;;15.62;75.22;99281.69;5022334;28;20103;-70
2021/08/03 07:51:18;;;;;;;6.05;4.85;;;;;;;15.56;75.08;99283.03;5013871;28;20502;-71
2021/08/03 07:53:44;;;;;;;10.00;5.63;;;;;;;15.50;75.65;99288.78;5005388;28;20101;-72
2021/08/03 07:56:10;;;;;;;9.00;5.10;;;;;;;15.50;75.70;99286.13;5008099;28;20058;-69
2021/08/03 07:58:44;;;;;;;7.43;5.38;;;;;;;15.55;76.59;99289.28;5006275;28;20570;-71
2021/08/03 08:01:10;;;;;;;9.30;5.55;;;;;;;15.56;77.52;99283.03;5002714;28;20030;-71
2021/08/03 08:06:20;;;;;;;7.18;5.40;;;;;;;15.55;75.04;99289.28;5001976;28;20433;-73
2021/08/03 08:08:46;;;;;;;6.57;4.68;;;;;;;15.52;75.31;99284.22;5008094;28;20022;-70
2021/08/03 08:11:17;;;;;;;6.35;4.43;;;;;;;15.51;75.81;99285.19;5012120;28;20037;-72
2021/08/03 08:13:46;;;;;;;11.75;5.22;;;;;;;15.50;76.55;99286.13;5007821;28;20394;-72
2021/08/03 08:16:12;;;;;;;11.93;6.20;;;;;;;15.49;78.27;99279.16;4990932;28;20034;-70
2021/08/03 08:18:37;;;;;;;8.70;6.80;;;;;;;15.45;79.14;99283.00;5010771;28;20498;-72
2021/08/03 08:21:03;;;;;;;14.00;6.57;;;;;;;15.39;77.95;99289.63;5017028;28;20102;-68
2021/08/03 08:23:29;;;;;;;7.97;5.97;;;;;;;15.36;78.97;99294.34;5010723;28;20099;-72
2021/08/03 08:25:55;;;;;;;8.93;6.88;;;;;;;15.28;80.35;99284.28;5012059;28;20030;-73
2021/08/03 08:28:21;;;;;;;9.25;5.75;;;;;;;15.22;80.25;99293.59;5016757;28;20057;-73
2021/08/03 08:30:46;;;;;;;7.60;5.82;;;;;;;15.19;80.30;99295.63;5004981;28;20042;-72
2021/08/03 08:33:31;;;;;;;13.13;8.27;;;;;;;15.14;80.77;99284.53;5014758;28;20030;-71
2021/08/03 08:36:32;;;;;;;14.57;8.15;;;;;;;15.03;82.13;99272.88;5003217;28;20068;-72
2021/08/03 08:38:57;;;;;;;12.73;7.05;;;;;;;14.95;83.39;99271.78;4985645;28;20042;-72
2021/08/03 08:41:23;;;;;;;12.23;8.52;;;;;;;14.95;83.32;99283.25;5010780;28;20042;-72
2021/08/03 08:43:50;;;;;;;12.45;7.28;;;;;;;15.04;83.86;99265.78;5013149;28;20045;-72
2021/08/03 08:46:16;;;;;;;11.63;7.45;;;;;;;15.12;83.55;99267.88;4999775;28;20118;-72
2021/08/03 08:48:42;;;;;;;7.60;6.38;;;;;;;15.19;82.90;99267.28;5033547;28;20516;-72
2021/08/03 08:51:13;;;;;;;11.45;9.43;;;;;;;15.27;82.84;99266.69;5012328;28;20490;-71
2021/08/03 08:53:39;;;;;;;12.68;8.77;;;;;;;15.35;82.98;99258.13;4990774;28;20037;-71
2021/08/03 08:56:05;;;;;;;13.35;8.88;;;;;;;15.42;82.88;99267.31;4992143;28;20117;-72
2021/08/03 08:58:35;;;;;;;12.07;7.78;;;;;;;15.36;82.33;99259.81;4990998;28;20076;-72
2021/08/03 09:01:14;;;;;;;11.75;8.38;;;;;;;15.40;82.16;99258.59;5037421;28;20109;-71
2021/08/03 09:03:40;;;;;;;10.05;7.43;;;;;;;15.40;82.31;99258.59;4992267;28;20039;-72
2021/08/03 09:06:06;;;;;;;10.50;9.15;;;;;;;15.38;82.80;99258.75;5021503;28;20108;-72
2021/08/03 09:08:53;;;;;;;12.85;9.75;;;;;;;15.34;82.72;99253.78;5005291;28;20044;-72
2021/08/03 09:11:20;;;;;;;17.73;11.18;;;;;;;15.32;83.20;99258.34;5003905;28;20037;-71
2021/08/03 09:13:55;;;;;;;13.73;8.13;;;;;;;15.33;82.94;99258.22;5014016;28;20030;-71
2021/08/03 09:16:44;;;;;;;16.23;12.52;;;;;;;15.35;83.57;99252.81;5002991;28;20037;-70
2021/08/03 09:19:47;;;;;;;12.65;9.95;;;;;;;15.35;83.63;99258.13;5016806;28;20091;-73
2021/08/03 09:22:30;;;;;;;14.70;10.18;;;;;;;15.35;83.70;99252.81;5012060;28;20037;-71
2021/08/03 09:25:16;;;;;;;14.55;10.30;;;;;;;15.38;83.79;99255.22;5018980;28;20559;-71
2021/08/03 09:28:11;;;;;;;14.40;9.57;;;;;;;15.36;83.29;99262.47;5013914;28;20036;-71
2021/08/03 09:30:38;;;;;;;13.63;10.50;;;;;;;15.38;83.56;99258.75;5009642;28;20037;-69
2021/08/03 09:33:06;;;;;;;13.25;7.53;;;;;;;15.46;83.48;99256.31;5017537;28;20088;-71
2021/08/03 09:35:32;;;;;;;12.80;9.93;;;;;;;15.52;82.96;99259.47;5005814;28;20144;-70
2021/08/03 09:38:29;;;;;;;18.90;9.95;;;;;;;15.57;82.89;99263.44;5013388;28;20136;-71
2021/08/03 09:41:07;;;;;;;12.75;9.90;;;;;;;15.65;82.83;99260.19;4993935;28;20451;-70
2021/08/03 09:43:32;;;;;;;12.10;8.40;;;;;;;15.71;82.37;99262.41;5016828;28;20037;-71
2021/08/03 09:46:00;;;;;;;8.27;7.20;;;;;;;15.82;82.09;99259.72;5016313;28;20603;-71
2021/08/03 09:48:27;;;;;;;9.05;6.18;;;;;;;16.00;81.38;99259.25;5014118;28;20038;-69
2021/08/03 09:51:00;;;;;;;9.45;6.93;;;;;;;16.15;80.33;99255.34;5019738;28;20595;-72
2021/08/03 09:53:52;;;;;;;12.60;6.63;;;;;;;16.32;80.15;99259.31;5021936;28;20038;-72
2021/08/03 09:56:34;;;;;;;7.03;5.68;;;;;;;16.40;79.59;99256.84;5018228;28;20034;-71
2021/08/03 09:59:01;;;;;;;11.30;7.65;;;;;;;16.48;79.37;99254.41;5011658;28;20118;-72
2021/08/03 10:01:30;;;;;;;13.50;8.80;;;;;;;16.62;79.63;99252.44;5011407;28;20053;-70
2021/08/03 10:04:11;;;;;;;11.43;9.30;;;;;;;16.67;79.60;99255.56;5010198;28;20099;-72
2021/08/03 10:06:38;;;;;;;11.80;7.38;;;;;;;16.71;79.36;99254.31;5013581;28;20097;-70
2021/08/03 10:09:06;;;;;;;15.93;9.13;;;;;;;16.80;78.65;99255.41;5017229;28;20054;-69
2021/08/03 10:11:32;;;;;;;14.00;8.48;;;;;;;16.83;78.53;99244.50;5011071;28;20378;-70
2021/08/03 10:14:05;;;;;;;12.82;6.30;;;;;;;16.83;78.50;99242.66;5011300;28;20041;-69
2021/08/03 10:16:31;;;;;;;9.18;7.63;;;;;;;16.74;78.46;99240.75;5010024;28;20109;-72
2021/08/03 10:18:58;;;;;;;9.23;6.53;;;;;;;16.74;78.70;99240.75;5009611;28;20122;-71
2021/08/03 10:21:47;;;;;;;14.45;10.52;;;;;;;16.71;78.69;99233.00;5001275;28;20516;-71
2021/08/03 10:24:17;;;;;;;12.80;8.20;;;;;;;16.75;79.33;99239.78;5005497;28;20186;-71
2021/08/03 10:27:01;;;;;;;7.88;7.05;;;;;;;16.78;79.74;99238.69;5009213;28;20354;-72
2021/08/03 10:29:27;;;;;;;11.82;10.45;;;;;;;16.75;79.68;99234.44;5014800;28;20084;-72
2021/08/03 10:31:56;;;;;;;13.95;7.65;;;;;;;16.77;79.24;99237.84;5011182;28;20042;-71
2021/08/03 10:34:50;;;;;;;8.75;7.32;;;;;;;16.69;78.32;99233.16;5010482;28;20034;-71
2021/08/03 10:37:16;;;;;;;10.30;7.45;;;;;;;16.65;79.16;99236.19;5018216;28;20551;-71
2021/08/03 10:39:49;;;;;;;11.70;9.90;;;;;;;16.62;79.56;99239.13;5008645;28;20133;-71
2021/08/03 10:42:15;;;;;;;9.18;6.97;;;;;;;16.61;80.08;99242.75;5009687;28;20042;-71
2021/08/03 10:44:50;;;;;;;13.02;6.95;;;;;;;16.62;78.89;99239.97;4994760;28;20036;-72
2021/08/03 10:47:31;;;;;;;;;;;;;;;16.63;78.57;99236.31;5007088;28;20501;-69
2021/08/03 10:49:57;;;;;;;7.85;5.90;;;;;;;16.68;79.14;99239.44;5009483;28;19922;-71
2021/08/03 10:52:45;;;;;;;7.68;5.55;;;;;;;16.75;79.19;99227.31;5009195;28;20049;-70
2021/08/03 10:55:43;;;;;;;15.93;12.43;;;;;;;16.77;79.39;99224.53;5011633;28;20037;-72
2021/08/03 10:58:09;;;;;;;15.52;10.82;;;;;;;16.74;79.87;99230.13;5011660;28;20549;-72
2021/08/03 11:00:58;;;;;;;10.45;7.07;;;;;;;16.75;79.47;99232.63;5010055;28;20042;-72
2021/08/03 11:03:30;;;;;;;9.32;8.35;;;;;;;16.78;79.90;99234.22;5009873;28;20030;-72
2021/08/03 11:05:56;;;;;;;10.60;9.07;;;;;;;16.74;79.78;99238.09;5009325;28;20088;-71
2021/08/03 11:08:31;;;;;;;10.60;9.60;;;;;;;16.67;79.19;99240.44;5008011;28;20405;-71
2021/08/03 11:11:05;;;;;;;16.35;10.77;;;;;;;16.59;79.79;99244.69;5005949;28;20042;-71
2021/08/03 11:13:43;;;;;;;9.23;7.75;;;;;;;16.50;79.08;99240.97;5007145;28;20494;-71
2021/08/03 11:16:31;;;;;;;9.25;8.00;;;;;;;16.46;80.25;99242.19;4986081;28;20486;-71
2021/08/03 11:19:00;;;;;;;6.93;6.22;;;;;;;16.47;80.24;99246.56;4988853;28;20494;-71
2021/08/03 11:21:30;;;;;;;8.93;8.02;;;;;;;16.49;79.19;99244.59;4989418;28;20190;-72
2021/08/03 11:23:58;;;;;;;13.43;10.50;;;;;;;16.52;80.74;99244.38;4989735;28;20034;-71
2021/08/03 11:26:31;;;;;;;10.52;9.48;;;;;;;16.59;80.75;99240.22;4988676;28;20038;-71
2021/08/03 11:29:02;;;;;;;22.80;12.82;;;;;;;16.65;80.07;99237.03;4989524;28;20027;-71
2021/08/03 11:31:48;;;;;;;9.18;7.25;;;;;;;16.74;80.76;99236.28;4989220;28;20031;-72
2021/08/03 11:34:24;;;;;;;12.98;10.45;;;;;;;16.92;79.76;99238.41;4989016;28;20034;-71
2021/08/03 11:36:52;;;;;;;11.40;9.80;;;;;;;17.09;79.14;99224.50;5002887;28;20100;-71
2021/08/03 11:39:22;;;;;;;8.93;7.80;;;;;;;17.42;77.92;99227.06;4993259;28;20100;-72
2021/08/03 11:41:52;;;;;;;8.00;6.93;;;;;;;17.65;76.98;99227.72;4992020;28;20054;-70
2021/08/03 11:44:19;;;;;;;9.90;8.93;;;;;;;17.77;76.02;99234.63;4983517;28;20034;-71
2021/08/03 11:46:46;;;;;;;10.00;8.68;;;;;;;17.76;75.14;99231.13;4997275;28;20038;-71
2021/08/03 11:49:11;;;;;;;8.45;7.60;;;;;;;17.69;75.42;99229.13;5003110;28;20057;-72
2021/08/03 11:51:46;;;;;;;8.88;8.02;;;;;;;17.65;76.01;99231.25;5002633;28;20137;-72
2021/08/03 11:54:16;;;;;;;7.50;6.18;;;;;;;17.70;75.66;99228.16;5003183;28;20034;-71
2021/08/03 11:56:43;;;;;;;7.30;6.20;;;;;;;17.73;74.67;99233.22;4982736;28;20037;-71